Alder Grove, Washington
Current Conditions -  °F | °C
As of 9:53 PM on Thursday 27 Nov 2014 (Local Time) from KSHN Reporting Station
Overcast Overcast  
Wind Chill: 13°   Ceiling: 1700
Heat Index: 13°   Visibility: 10mi
Dew Point: 11°   Wind: 16mph
Humidity: 86%   Direction: 200°SSW
Pressure: 29.69"   Gusts: 23mph
Location:  47.555°N, 123.746°W
Report Text: KSHN 280553Z AUTO 20014G20KT 10SM BKN017 BKN028 OVC055 13/11 A2969 RMK AO2 RAB15E29 SLP055 P0000 60031 T01280106 10128 20122 58016
Loading
Personal Weather Stations






























Interactive Weather Map New forecast layout! Learn more

10-Day Weather Forecast

Advertisements
Track Severe Weather on mobile